Time;durP1;ratioP1;P1;durP2;ratioP2;P2;SDS_P1;SDS_P2;PMS_P1;PMS_P2;Temp;Humidity;BMP_temperature;BMP_pressure;BME280_temperature;BME280_humidity;BME280_pressure;Samples;Min_cycle;Max_cycle;Signal;HPM_P1;HPM_P2
2022/05/31 00:01:11;;;;;;;;;;;;;;;17.04;70.07;100623.87;1636666;87;20213;-60
2022/05/31 00:04:15;;;;;;;;;;;;;;;17.07;70.13;100623.97;1659697;86;20232;-60
2022/05/31 00:07:21;;;;;;;;;;;;;;;17.06;70.18;100618.12;1717635;82;20535;-60
2022/05/31 00:10:26;;;;;;;;;;;;;;;17.06;70.28;100626.42;1689724;84;20224;-60
2022/05/31 00:13:32;;;;;;;;;;;;;;;17.07;70.34;100637.80;1688335;84;20222;-62
2022/05/31 00:16:38;;;;;;;;;;;;;;;17.07;70.34;100639.19;1687685;85;20231;-59
2022/05/31 00:19:43;;;;;;;;;;;;;;;17.05;70.36;100628.85;1687673;85;20622;-61
2022/05/31 00:22:49;;;;;;;;;;;;;;;17.03;70.35;100633.77;1687659;85;20235;-61
2022/05/31 00:25:54;;;;;;;;;;;;;;;16.99;70.39;100644.39;1687987;84;20546;-59
2022/05/31 00:28:59;;;;;;;;;;;;;;;16.99;70.53;100656.84;1687633;85;20225;-60
2022/05/31 00:32:07;;;;;;;;;;;;;;;17.02;70.67;100654.17;1687097;85;20261;-60
2022/05/31 00:35:18;;;;;;;;;;;;;;;17.02;70.72;100644.49;1687312;84;20206;-60
2022/05/31 00:38:24;;;;;;;;;;;;;;;17.03;70.83;100661.42;1687282;85;20222;-61
2022/05/31 00:41:27;;;;;;;;;;;;;;;17.05;70.90;100668.96;1716264;82;20206;-60
2022/05/31 00:44:33;;;;;;;;;;;;;;;17.07;70.96;100671.86;1687296;84;20218;-59
2022/05/31 00:47:39;;;;;;;;;;;;;;;17.08;70.93;100647.27;1687425;85;20191;-61
2022/05/31 00:50:52;;;;;;;;;;;;;;;17.09;71.00;100639.31;1687266;84;20563;-60
2022/05/31 00:54:01;;;;;;;;;;;;;;;17.10;71.04;100636.85;1713755;82;20551;-60
2022/05/31 00:57:06;;;;;;;;;;;;;;;17.09;71.08;100632.91;1688890;84;20246;-60
2022/05/31 01:00:13;;;;;;;;;;;;;;;17.06;71.04;100625.04;1682611;84;20246;-61
2022/05/31 01:03:21;;;;;;;;;;;;;;;16.94;71.05;100607.36;1682590;85;20187;-59
2022/05/31 01:06:27;;;;;;;;;;;;;;;16.87;71.21;100613.42;1682469;85;20504;-61
2022/05/31 01:09:34;;;;;;;;;;;;;;;16.81;71.38;100626.72;1693418;84;20543;-62
2022/05/31 01:12:42;;;;;;;;;;;;;;;16.81;71.55;100628.10;1690855;85;20218;-63
2022/05/31 01:16:12;;;;;;;;;;;;;;;16.85;71.68;100634.91;1676914;85;20207;-62
2022/05/31 01:22:51;;;;;;;;;;;;;;;16.87;71.72;100627.25;1693578;84;20185;-61
2022/05/31 01:26:09;;;;;;;;;;;;;;;16.84;71.71;100626.30;1733438;82;20238;-59
2022/05/31 01:29:25;;;;;;;;;;;;;;;16.81;71.80;100615.66;1733051;83;20516;-60
2022/05/31 01:32:24;;;;;;;;;;;;;;;16.78;71.91;100617.44;1691255;84;20550;-61
2022/05/31 01:35:19;;;;;;;;;;;;;;;16.78;72.03;100627.11;1689232;84;20219;-61
2022/05/31 01:38:29;;;;;;;;;;;;;;;16.75;72.09;100627.53;1732993;83;20195;-60
2022/05/31 01:41:57;;;;;;;;;;;;;;;16.76;72.19;100625.11;1733128;83;20523;-59
2022/05/31 01:45:06;;;;;;;;;;;;;;;16.73;72.22;100619.45;1705337;83;20185;-58
2022/05/31 01:48:11;;;;;;;;;;;;;;;16.70;72.33;100618.48;1690183;83;20192;-61
2022/05/31 01:51:19;;;;;;;;;;;;;;;16.69;72.42;100622.84;1733811;82;20542;-61
2022/05/31 01:54:24;;;;;;;;;;;;;;;16.70;72.50;100619.87;1717019;83;20246;-61
2022/05/31 01:57:24;;;;;;;;;;;;;;;16.71;72.55;100622.12;1732572;83;20198;-60
2022/05/31 02:00:19;;;;;;;;;;;;;;;16.74;72.62;100625.32;1705033;83;20233;-60
2022/05/31 02:03:06;;;;;;;;;;;;;;;16.76;72.65;100626.49;1706070;83;20217;-60
2022/05/31 02:06:00;;;;;;;;;;;;;;;16.77;72.68;100625.42;1706086;83;20229;-60
2022/05/31 02:08:46;;;;;;;;;;;;;;;16.80;72.74;100623.61;1704233;81;20335;-60
2022/05/31 02:11:38;;;;;;;;;;;;;;;16.79;72.76;100627.45;1697908;83;20193;-60
2022/05/31 02:14:26;;;;;;;;;;;;;;;16.79;72.77;100621.92;1697617;83;20233;-63
2022/05/31 02:17:20;;;;;;;;;;;;;;;16.81;72.86;100615.66;1697543;83;20469;-60
2022/05/31 02:20:22;;;;;;;;;;;;;;;16.82;72.96;100620.98;1697305;84;20204;-61
2022/05/31 02:23:13;;;;;;;;;;;;;;;16.84;72.98;100631.83;1697641;83;20224;-61
2022/05/31 02:26:00;;;;;;;;;;;;;;;16.85;73.00;100642.67;1697457;84;20209;-61
2022/05/31 02:28:51;;;;;;;;;;;;;;;16.87;73.02;100642.47;1697310;83;20549;-61
2022/05/31 02:31:59;;;;;;;;;;;;;;;16.86;73.04;100632.44;1697754;84;20193;-61
2022/05/31 02:35:03;;;;;;;;;;;;;;;16.86;73.12;100631.06;1699380;83;20205;-60
2022/05/31 02:38:10;;;;;;;;;;;;;;;16.87;73.17;100641.08;1697952;83;20178;-61
2022/05/31 02:41:15;;;;;;;;;;;;;;;16.88;73.27;100638.62;1698358;83;20518;-60
2022/05/31 02:44:20;;;;;;;;;;;;;;;16.91;73.36;100646.50;1698820;83;20241;-60
2022/05/31 02:47:26;;;;;;;;;;;;;;;16.96;73.40;100652.26;1697977;83;20197;-61
2022/05/31 02:50:30;;;;;;;;;;;;;;;17.01;73.41;100660.78;1698078;83;20184;-62
2022/05/31 02:53:35;;;;;;;;;;;;;;;17.02;73.44;100658.32;1698536;83;20517;-61
2022/05/31 02:56:40;;;;;;;;;;;;;;;17.02;73.44;100658.32;1698160;83;20202;-61
2022/05/31 02:59:56;;;;;;;;;;;;;;;16.99;73.45;100659.61;1697772;84;20221;-62
2022/05/31 03:03:09;;;;;;;;;;;;;;;16.99;73.52;100664.28;1696031;84;20213;-60
2022/05/31 03:06:34;;;;;;;;;;;;;;;17.00;73.58;100667.39;1698320;83;20201;-60
2022/05/31 03:09:39;;;;;;;;;;;;;;;17.03;73.71;100680.79;1687187;82;20203;-60
2022/05/31 03:12:45;;;;;;;;;;;;;;;17.08;73.82;100691.53;1693183;83;20210;-60
2022/05/31 03:15:52;;;;;;;;;;;;;;;17.12;73.87;100695.59;1689226;85;20254;-61
2022/05/31 03:19:08;;;;;;;;;;;;;;;17.18;73.92;100698.89;1661987;86;20308;-61
2022/05/31 03:22:15;;;;;;;;;;;;;;;17.24;73.96;100708.25;1660608;86;20549;-61
2022/05/31 03:25:32;;;;;;;;;;;;;;;17.28;73.97;100716.47;1689857;85;20274;-60
2022/05/31 03:28:36;;;;;;;;;;;;;;;17.34;73.98;100708.70;1661625;86;20212;-59
2022/05/31 03:31:41;;;;;;;;;;;;;;;17.39;73.96;100712.55;1663392;85;20598;-59
2022/05/31 03:34:45;;;;;;;;;;;;;;;17.46;73.97;100710.66;1702566;83;20219;-59
2022/05/31 03:37:51;;;;;;;;;;;;;;;17.54;74.00;100709.58;1713749;83;20204;-60
2022/05/31 03:41:00;;;;;;;;;;;;;;;17.62;74.01;100714.91;1718031;83;20212;-60
2022/05/31 03:44:09;;;;;;;;;;;;;;;17.70;74.00;100721.62;1718601;83;20188;-60
2022/05/31 03:47:32;;;;;;;;;;;;;;;17.77;73.97;100718.33;1718354;83;20580;-61
2022/05/31 03:50:52;;;;;;;;;;;;;;;17.85;74.01;100709.80;1708277;83;20275;-60
2022/05/31 03:53:57;;;;;;;;;;;;;;;17.92;74.00;100704.25;1717927;83;20488;-60
2022/05/31 03:57:13;;;;;;;;;;;;;;;17.97;73.99;100701.14;1695336;83;20610;-61
2022/05/31 04:00:28;;;;;;;;;;;;;;;18.07;74.06;100696.02;1708860;82;20264;-62
2022/05/31 04:03:40;;;;;;;;;;;;;;;18.22;74.12;100703.52;1685117;85;20301;-59
2022/05/31 04:06:44;;;;;;;;;;;;;;;18.37;74.08;100701.36;1742257;82;20249;-60
2022/05/31 04:09:50;;;;;;;;;;;;;;;18.40;73.94;100702.86;1745758;82;20246;-59
2022/05/31 04:12:56;;;;;;;;;;;;;;;18.46;73.97;100715.84;1733300;82;20527;-59
2022/05/31 04:16:19;;;;;;;;;;;;;;;18.53;74.02;100713.39;1675590;85;20594;-59
2022/05/31 04:19:31;;;;;;;;;;;;;;;18.57;74.03;100707.70;1705835;83;20557;-61
2022/05/31 04:22:36;;;;;;;;;;;;;;;18.60;74.00;100705.05;1677934;85;20247;-61
2022/05/31 04:26:12;;;;;;;;;;;;;;;18.58;74.00;100702.49;1679143;84;20258;-60
2022/05/31 04:29:37;;;;;;;;;;;;;;;18.60;73.99;100698.94;1693180;83;20206;-59
2022/05/31 04:33:01;;;;;;;;;;;;;;;18.65;74.15;100695.50;1692917;85;20289;-58
2022/05/31 04:36:12;;;;;;;;;;;;;;;18.81;74.28;100693.09;1695059;83;20202;-60
2022/05/31 04:39:18;;;;;;;;;;;;;;;18.91;74.27;100693.99;1672298;85;20273;-60
2022/05/31 04:42:26;;;;;;;;;;;;;;;18.98;74.26;100700.37;1693295;85;20262;-59
2022/05/31 04:45:34;;;;;;;;;;;;;;;19.03;74.31;100698.61;1683960;85;20542;-61
2022/05/31 04:48:46;;;;;;;;;;;;;;;19.11;74.38;100694.19;1691606;85;20226;-60
2022/05/31 04:51:52;;;;;;;;;;;;;;;19.21;74.46;100683.45;1693519;83;20217;-61
2022/05/31 04:55:01;;;;;;;;;;;;;;;19.30;74.49;100677.09;1692627;85;20558;-61
2022/05/31 04:58:09;;;;;;;;;;;;;;;19.41;74.53;100679.70;1672142;84;20377;-61
2022/05/31 05:01:15;;;;;;;;;;;;;;;19.49;74.56;100683.03;1666060;85;20256;-61
2022/05/31 05:04:24;;;;;;;;;;;;;;;19.55;74.55;100679.34;1686520;84;20293;-63
2022/05/31 05:07:30;;;;;;;;;;;;;;;19.62;74.52;100679.28;1691230;85;20313;-61
2022/05/31 05:10:35;;;;;;;;;;;;;;;19.59;74.43;100682.00;1674636;85;20224;-60
2022/05/31 05:13:53;;;;;;;;;;;;;;;19.56;74.47;100676.04;1670557;84;20261;-60
2022/05/31 05:17:15;;;;;;;;;;;;;;;19.54;74.47;100674.87;1680944;85;20218;-59
2022/05/31 05:20:34;;;;;;;;;;;;;;;19.59;74.55;100671.41;1686314;84;20254;-55
2022/05/31 05:23:41;;;;;;;;;;;;;;;19.69;74.59;100680.09;1665644;85;20382;-54
2022/05/31 05:26:58;;;;;;;;;;;;;;;19.73;74.55;100670.20;1684356;85;20241;-58
2022/05/31 05:30:41;;;;;;;;;;;;;;;19.75;74.64;100672.23;1679169;85;20559;-57
2022/05/31 05:34:04;;;;;;;;;;;;;;;19.84;74.84;100675.88;1679897;85;20308;-55
2022/05/31 05:37:28;;;;;;;;;;;;;;;20.01;74.91;100678.36;1686578;84;20887;-56
2022/05/31 05:40:33;;;;;;;;;;;;;;;20.13;74.87;100672.91;1685649;85;20214;-58
2022/05/31 05:43:56;;;;;;;;;;;;;;;20.20;74.81;100675.94;1686579;84;20250;-56
2022/05/31 05:47:04;;;;;;;;;;;;;;;20.27;74.78;100686.46;1679421;85;20257;-57
2022/05/31 05:50:14;;;;;;;;;;;;;;;20.36;74.80;100682.84;1671066;85;20282;-56
2022/05/31 05:53:32;;;;;;;;;;;;;;;20.48;74.83;100686.53;1671683;85;20261;-56
2022/05/31 05:56:52;;;;;;;;;;;;;;;20.59;74.77;100685.75;1670504;85;20215;-59
2022/05/31 06:00:28;;;;;;;;;;;;;;;20.71;74.80;100678.30;1679337;85;20566;-55
2022/05/31 06:03:59;;;;;;;;;;;;;;;20.83;74.74;100672.80;1679212;85;20574;-56
2022/05/31 06:07:19;;;;;;;;;;;;;;;20.88;74.60;100666.85;1686563;85;20909;-57
2022/05/31 06:10:38;;;;;;;;;;;;;;;20.94;74.64;100673.39;1668344;85;20277;-57
2022/05/31 06:13:56;;;;;;;;;;;;;;;21.07;74.70;100667.14;1702762;83;20216;-56
2022/05/31 06:17:08;;;;;;;;;;;;;;;21.20;74.62;100659.95;1697748;83;20519;-56
2022/05/31 06:20:16;;;;;;;;;;;;;;;21.32;74.60;100655.27;1717310;83;20213;-56
2022/05/31 06:23:25;;;;;;;;;;;;;;;21.46;74.54;100653.96;1717787;82;20192;-60
2022/05/31 06:26:39;;;;;;;;;;;;;;;21.57;74.41;100655.05;1716049;83;20573;-57
2022/05/31 06:29:58;;;;;;;;;;;;;;;21.69;74.36;100655.36;1699328;83;20276;-56
2022/05/31 06:33:13;;;;;;;;;;;;;;;21.81;74.22;100656.27;1711528;83;20572;-58
2022/05/31 06:36:22;;;;;;;;;;;;;;;21.92;74.14;100661.53;1710405;83;20580;-60
2022/05/31 06:39:30;;;;;;;;;;;;;;;21.92;74.00;100654.02;1716444;83;20261;-58
2022/05/31 06:42:48;;;;;;;;;;;;;;;21.95;74.05;100659.64;1716613;83;20213;-58
2022/05/31 06:46:17;;;;;;;;;;;;;;;22.04;74.07;100659.60;1704017;83;20221;-60
2022/05/31 06:49:31;;;;;;;;;;;;;;;22.10;73.94;100664.20;1688174;83;20279;-56
2022/05/31 07:00:18;;;;;;;;;;;;;;;22.36;73.98;100660.86;1714204;83;20224;-55
2022/05/31 07:03:47;;;;;;;;;;;;;;;22.43;73.78;100664.92;1703142;83;20244;-57
2022/05/31 07:07:06;;;;;;;;;;;;;;;22.50;73.66;100666.47;1712359;83;20590;-56
2022/05/31 07:10:18;;;;;;;;;;;;;;;22.58;73.64;100664.72;1711717;83;20425;-56
2022/05/31 07:13:52;;;;;;;;;;;;;;;22.66;73.57;100662.11;1694169;81;20606;-56
2022/05/31 07:17:14;;;;;;;;;;;;;;;22.71;73.43;100664.98;1667279;85;20804;-57
2022/05/31 07:20:27;;;;;;;;;;;;;;;22.77;73.42;100662.62;1682928;85;20370;-58
2022/05/31 07:23:46;;;;;;;;;;;;;;;22.79;73.36;100662.66;1683211;85;20280;-57
2022/05/31 07:26:55;;;;;;;;;;;;;;;22.86;73.37;100657.79;1671729;85;20240;-59
2022/05/31 07:30:06;;;;;;;;;;;;;;;22.93;73.35;100661.83;1675298;85;20252;-57
2022/05/31 07:33:29;;;;;;;;;;;;;;;22.96;73.19;100662.72;1675876;85;20297;-55
2022/05/31 07:36:48;;;;;;;;;;;;;;;22.98;73.20;100671.14;1680143;85;20641;-57
2022/05/31 07:40:03;;;;;;;;;;;;;;;23.05;73.14;100668.20;1668822;85;20288;-58
2022/05/31 07:43:33;;;;;;;;;;;;;;;23.11;73.15;100665.79;1681510;85;20260;-56
2022/05/31 07:47:13;;;;;;;;;;;;;;;23.24;73.22;100658.50;1669472;85;20633;-54
2022/05/31 07:50:33;;;;;;;;;;;;;;;23.34;73.03;100662.92;1679046;83;20232;-59
2022/05/31 07:53:52;;;;;;;;;;;;;;;23.37;72.84;100659.62;1678380;85;20215;-62
2022/05/31 08:00:51;;;;;;;;;;;;;;;23.49;72.80;100653.39;1671862;85;20307;-57
2022/05/31 08:04:05;;;;;;;;;;;;;;;23.59;72.69;100653.57;1677046;85;20348;-55
2022/05/31 08:07:24;;;;;;;;;;;;;;;23.64;72.58;100647.50;1685624;85;20301;-54
2022/05/31 08:11:11;;;;;;;;;;;;;;;23.74;72.61;100653.80;1668062;83;20278;-55
2022/05/31 08:14:32;;;;;;;;;;;;;;;23.87;72.56;100651.20;1652514;85;20233;-57
2022/05/31 08:17:55;;;;;;;;;;;;;;;24.02;72.47;100657.94;1669055;86;20262;-53
2022/05/31 08:21:08;;;;;;;;;;;;;;;24.09;72.37;100652.98;1670785;85;20246;-58
2022/05/31 08:24:16;;;;;;;;;;;;;;;24.14;72.12;100644.67;1671539;85;20218;-55
2022/05/31 08:27:27;;;;;;;;;;;;;;;24.18;71.95;100655.62;1673053;85;20261;-53
2022/05/31 08:30:47;;;;;;;;;;;;;;;24.21;71.82;100649.55;1669343;84;20242;-52
2022/05/31 08:33:59;;;;;;;;;;;;;;;24.22;71.73;100651.23;1640146;85;20221;-55
2022/05/31 08:37:18;;;;;;;;;;;;;;;24.27;71.65;100654.10;1675610;83;20246;-55
2022/05/31 08:40:24;;;;;;;;;;;;;;;24.36;71.60;100658.13;1670366;85;20607;-53
2022/05/31 08:43:36;;;;;;;;;;;;;;;24.40;71.35;100655.67;1670845;83;20226;-53
2022/05/31 08:47:21;;;;;;;;;;;;;;;24.44;71.35;100652.09;1668141;85;20535;-53
2022/05/31 08:57:53;;;;;;;;;;;;;;;24.70;71.20;100649.95;1669429;85;20234;-54
2022/05/31 09:00:59;;;;;;;;;;;;;;;24.85;71.08;100650.12;1671819;85;20513;-52
2022/05/31 09:04:23;;;;;;;;;;;;;;;24.98;70.98;100651.11;1668443;83;20230;-56
2022/05/31 09:07:30;;;;;;;;;;;;;;;25.06;70.84;100653.98;1666429;84;20215;-60
2022/05/31 09:10:47;;;;;;;;;;;;;;;25.18;70.75;100652.44;1674889;82;20223;-56
2022/05/31 09:14:14;;;;;;;;;;;;;;;25.29;70.65;100645.81;1655568;84;20243;-56
2022/05/31 09:17:35;;;;;;;;;;;;;;;25.41;70.56;100645.11;1671589;85;20210;-58
2022/05/31 09:20:53;;;;;;;;;;;;;;;25.53;70.43;100639.61;1673757;84;20255;-59
2022/05/31 09:24:02;;;;;;;;;;;;;;;25.68;70.30;100641.70;1668653;84;20250;-59
2022/05/31 09:27:26;;;;;;;;;;;;;;;25.75;70.05;100643.16;1675470;84;20227;-57
2022/05/31 09:30:39;;;;;;;;;;;;;;;25.84;69.96;100641.56;1665784;85;20273;-59
2022/05/31 09:33:46;;;;;;;;;;;;;;;26.00;69.90;100642.00;1649794;86;20244;-58
2022/05/31 09:37:14;;;;;;;;;;;;;;;26.15;69.82;100642.62;1645611;87;20613;-58
2022/05/31 09:40:53;;;;;;;;;;;;;;;26.28;69.66;100639.34;1646591;86;20261;-58
2022/05/31 09:44:20;;;;;;;;;;;;;;;26.39;69.40;100638.27;1645287;87;20260;-57
2022/05/31 09:47:29;;;;;;;;;;;;;;;26.39;69.27;100639.68;1646111;87;20229;-59
2022/05/31 09:50:39;;;;;;;;;;;;;;;26.43;69.04;100638.85;1667632;84;20271;-58
2022/05/31 09:57:23;;;;;;;;;;;;;;;26.52;69.00;100638.33;1665905;86;20229;-63
2022/05/31 10:00:44;;;;;;;;;;;;;;;26.54;68.74;100634.15;1668705;84;20203;-52
2022/05/31 10:03:50;;;;;;;;;;;;;;;26.49;68.64;100635.53;1669055;84;20220;-52
2022/05/31 10:07:12;;;;;;;;;;;;;;;26.48;68.67;100642.27;1673735;84;20618;-50
2022/05/31 10:10:20;;;;;;;;;;;;;;;26.53;68.60;100635.83;1670852;84;20282;-50
2022/05/31 10:13:43;;;;;;;;;;;;;;;26.55;68.56;100644.80;1670991;84;20222;-52
2022/05/31 10:16:50;;;;;;;;;;;;;;;26.61;68.71;100643.15;1645091;87;20225;-53
2022/05/31 10:19:55;;;;;;;;;;;;;;;26.79;68.60;100648.32;1662942;84;20246;-52
2022/05/31 10:23:17;;;;;;;;;;;;;;;26.82;68.33;100643.55;1672451;85;20254;-53
2022/05/31 10:26:40;;;;;;;;;;;;;;;26.90;68.32;100643.56;1655987;85;20847;-50
2022/05/31 10:30:00;;;;;;;;;;;;;;;26.98;68.10;100653.72;1642673;85;20218;-53
2022/05/31 10:33:28;;;;;;;;;;;;;;;26.92;67.95;100653.43;1684515;84;20219;-51
2022/05/31 10:36:36;;;;;;;;;;;;;;;27.00;67.92;100640.24;1665218;85;20233;-54
2022/05/31 10:39:44;;;;;;;;;;;;;;;27.19;67.99;100647.03;1673563;85;20444;-50
2022/05/31 10:42:51;;;;;;;;;;;;;;;27.36;67.93;100640.62;1671629;85;20219;-53
2022/05/31 10:45:57;;;;;;;;;;;;;;;27.42;67.74;100636.68;1655311;84;20219;-49
2022/05/31 10:49:05;;;;;;;;;;;;;;;27.55;67.68;100640.34;1673201;85;20396;-53
2022/05/31 10:52:13;;;;;;;;;;;;;;;27.64;67.40;100633.02;1673214;85;20650;-52
2022/05/31 10:55:42;;;;;;;;;;;;;;;27.68;67.21;100634.16;1671031;84;20207;-52
2022/05/31 10:59:04;;;;;;;;;;;;;;;27.69;67.11;100627.40;1672590;83;20510;-50
2022/05/31 11:02:29;;;;;;;;;;;;;;;27.86;67.15;100627.94;1668101;86;20627;-52
2022/05/31 11:05:39;;;;;;;;;;;;;;;28.10;67.12;100625.39;1673039;84;20207;-53
2022/05/31 11:12:50;;;;;;;;;;;;;;;28.47;66.54;100620.77;1656182;83;20634;-56
2022/05/31 11:16:09;;;;;;;;;;;;;;;28.44;66.10;100615.16;1679255;83;20218;-51
2022/05/31 11:19:39;;;;;;;;;;;;;;;28.36;66.01;100621.95;1681423;85;20307;-54
2022/05/31 11:23:09;;;;;;;;;;;;;;;28.20;65.57;100624.52;1680968;83;20665;-60
2022/05/31 11:26:44;;;;;;;;;;;;;;;28.07;65.50;100622.33;1654056;83;20240;-59
2022/05/31 11:30:03;;;;;;;;;;;;;;;28.12;65.56;100618.92;1668551;85;20215;-57
2022/05/31 11:33:27;;;;;;;;;;;;;;;28.21;65.48;100612.16;1680184;83;20587;-57
2022/05/31 11:36:54;;;;;;;;;;;;;;;28.33;65.50;100613.52;1680702;85;20219;-52
2022/05/31 11:40:30;;;;;;;;;;;;;;;28.43;65.35;100604.19;1679968;83;20211;-55
2022/05/31 11:43:41;;;;;;;;;;;;;;;28.50;65.08;100592.91;1683505;83;20206;-50
2022/05/31 11:47:10;;;;;;;;;;;;;;;28.59;64.95;100595.39;1681988;83;20225;-53
2022/05/31 11:50:48;;;;;;;;;;;;;;;28.72;64.85;100586.88;1679305;83;20208;-63
2022/05/31 11:54:10;;;;;;;;;;;;;;;28.85;64.54;100591.88;1674949;83;20502;-60
2022/05/31 11:57:23;;;;;;;;;;;;;;;28.87;64.38;100589.63;1680673;83;20236;-59
2022/05/31 12:00:30;;;;;;;;;;;;;;;28.87;64.01;100585.39;1672501;83;20263;-55
2022/05/31 12:03:58;;;;;;;;;;;;;;;28.90;63.78;100587.62;1670365;84;20554;-57
2022/05/31 12:07:20;;;;;;;;;;;;;;;28.89;63.58;100583.13;1673748;84;20650;-57
2022/05/31 12:10:37;;;;;;;;;;;;;;;28.97;63.54;100581.94;1674248;84;20574;-53
2022/05/31 12:13:47;;;;;;;;;;;;;;;29.12;63.41;100575.38;1670804;82;20293;-59
2022/05/31 12:16:56;;;;;;;;;;;;;;;29.20;63.11;100570.53;1666540;84;20219;-59
2022/05/31 12:20:25;;;;;;;;;;;;;;;29.21;62.78;100573.05;1666822;83;20215;-59
2022/05/31 12:23:40;;;;;;;;;;;;;;;29.17;62.40;100556.46;1667365;84;20575;-58
2022/05/31 12:27:04;;;;;;;;;;;;;;;29.18;62.15;100552.49;1678815;84;20194;-60
2022/05/31 12:30:27;;;;;;;;;;;;;;;29.21;61.94;100545.41;1672978;84;20283;-57
2022/05/31 12:33:40;;;;;;;;;;;;;;;29.19;61.80;100542.06;1675892;85;20650;-58
2022/05/31 12:37:07;;;;;;;;;;;;;;;28.94;61.55;100531.77;1674242;85;20219;-61
2022/05/31 12:40:38;;;;;;;;;;;;;;;28.82;61.47;100527.63;1670698;83;20626;-59
2022/05/31 12:43:55;;;;;;;;;;;;;;;28.75;61.50;100516.69;1661471;84;20203;-60
2022/05/31 12:47:00;;;;;;;;;;;;;;;28.81;61.51;100518.33;1662207;85;20218;-61
2022/05/31 12:50:07;;;;;;;;;;;;;;;28.83;61.30;100518.03;1660249;86;20236;-58
2022/05/31 12:56:47;;;;;;;;;;;;;;;28.68;61.02;100527.45;1664698;84;21003;-60
2022/05/31 12:59:56;;;;;;;;;;;;;;;28.61;60.98;100522.70;1672506;83;20423;-61
2022/05/31 13:03:04;;;;;;;;;;;;;;;28.57;60.92;100526.39;1664299;83;20222;-59
2022/05/31 13:06:14;;;;;;;;;;;;;;;28.53;60.97;100526.13;1668745;83;20475;-59
2022/05/31 13:09:22;;;;;;;;;;;;;;;28.52;60.83;100523.59;1664751;84;20214;-62
2022/05/31 13:20:04;;;;;;;;;;;;;;;28.64;60.48;100524.08;1642685;85;20217;-59
2022/05/31 13:23:18;;;;;;;;;;;;;;;28.63;60.25;100520.99;1643236;85;20231;-60
2022/05/31 13:26:30;;;;;;;;;;;;;;;28.61;60.05;100520.44;1643493;85;20648;-59
2022/05/31 13:29:34;;;;;;;;;;;;;;;28.55;59.79;100514.56;1645240;85;20479;-59
2022/05/31 13:32:44;;;;;;;;;;;;;;;28.53;59.65;100504.99;1651003;85;20233;-58
2022/05/31 13:35:53;;;;;;;;;;;;;;;28.55;59.52;100493.43;1646780;85;20318;-60
2022/05/31 13:39:13;;;;;;;;;;;;;;;28.52;59.30;100495.42;1650875;85;20246;-59
2022/05/31 13:42:37;;;;;;;;;;;;;;;28.53;59.24;100492.88;1643610;85;20587;-60
2022/05/31 13:45:45;;;;;;;;;;;;;;;28.63;59.16;100492.26;1615993;88;20531;-60
2022/05/31 13:49:05;;;;;;;;;;;;;;;28.70;58.94;100497.58;1641289;86;20213;-60
2022/05/31 13:52:10;;;;;;;;;;;;;;;28.68;58.79;100488.56;1638494;86;20516;-61
2022/05/31 13:55:21;;;;;;;;;;;;;;;28.64;58.58;100492.52;1621875;85;20272;-61
2022/05/31 13:58:27;;;;;;;;;;;;;;;28.64;58.45;100502.94;1650957;85;20228;-62
2022/05/31 14:01:47;;;;;;;;;;;;;;;28.60;58.22;100493.41;1647745;85;20253;-62
2022/05/31 14:04:58;;;;;;;;;;;;;;;28.64;58.17;100492.52;1641642;87;20213;-60
2022/05/31 14:08:01;;;;;;;;;;;;;;;28.68;57.90;100502.09;1622029;88;20227;-59
2022/05/31 14:11:09;;;;;;;;;;;;;;;28.65;57.75;100499.86;1616700;89;20231;-60
2022/05/31 14:14:46;;;;;;;;;;;;;;;28.68;57.62;100499.28;1644438;85;20629;-60
2022/05/31 14:17:53;;;;;;;;;;;;;;;28.71;57.46;100499.24;1646878;85;20586;-59
2022/05/31 14:21:02;;;;;;;;;;;;;;;28.68;57.19;100490.82;1668164;85;20207;-59
2022/05/31 14:24:05;;;;;;;;;;;;;;;28.68;56.99;100484.33;1634607;85;20284;-58
2022/05/31 14:27:12;;;;;;;;;;;;;;;28.66;56.90;100490.81;1641768;85;20222;-64
2022/05/31 14:30:22;;;;;;;;;;;;;;;28.66;56.71;100495.90;1632528;87;20265;-61
2022/05/31 14:33:27;;;;;;;;;;;;;;;28.67;56.60;100496.75;1629428;88;20209;-61
2022/05/31 14:36:39;;;;;;;;;;;;;;;28.68;56.49;100492.23;1637788;85;20564;-62
2022/05/31 14:39:53;;;;;;;;;;;;;;;28.69;56.23;100493.91;1626050;85;20237;-60
2022/05/31 14:43:04;;;;;;;;;;;;;;;28.68;56.13;100491.37;1617995;88;20216;-61
2022/05/31 14:46:11;;;;;;;;;;;;;;;28.74;56.09;100496.69;1628565;87;20619;-61
2022/05/31 14:49:16;;;;;;;;;;;;;;;28.83;56.01;100507.61;1630906;88;20645;-59
2022/05/31 14:52:29;;;;;;;;;;;;;;;28.96;56.05;100504.70;1636568;85;20398;-61
2022/05/31 14:55:38;;;;;;;;;;;;;;;29.03;55.76;100509.44;1628335;87;20213;-61
2022/05/31 14:58:43;;;;;;;;;;;;;;;29.06;55.76;100507.44;1638277;85;20237;-61
2022/05/31 15:01:51;;;;;;;;;;;;;;;29.34;55.61;100508.06;1619882;86;20235;-62
2022/05/31 15:05:01;;;;;;;;;;;;;;;29.20;55.20;100504.25;1637663;87;20465;-62
2022/05/31 15:08:07;;;;;;;;;;;;;;;28.97;55.26;100486.08;1638224;86;20647;-62
2022/05/31 15:21:30;;;;;;;;;;;;;;;28.23;55.25;100474.70;1642537;85;20605;-61
2022/05/31 15:24:42;;;;;;;;;;;;;;;28.21;55.31;100474.17;1634527;87;20253;-61
2022/05/31 15:27:48;;;;;;;;;;;;;;;28.28;55.29;100483.12;1628565;88;20565;-62
2022/05/31 15:30:52;;;;;;;;;;;;;;;28.36;55.14;100490.41;1636124;87;20265;-61
2022/05/31 15:34:05;;;;;;;;;;;;;;;28.55;54.93;100495.69;1637108;86;20612;-61
2022/05/31 15:37:12;;;;;;;;;;;;;;;28.65;54.78;100500.42;1640799;86;20222;-61
2022/05/31 15:40:22;;;;;;;;;;;;;;;28.60;54.70;100501.86;1642935;86;20213;-60
2022/05/31 15:46:46;;;;;;;;;;;;;;;28.63;54.69;100525.22;1640540;86;20213;-61
2022/05/31 15:49:39;;;;;;;;;;;;;;;28.48;54.50;100532.37;1642555;86;20223;-61
2022/05/31 15:52:38;;;;;;;;;;;;;;;28.30;54.39;100532.97;1640551;86;20874;-59
2022/05/31 15:55:31;;;;;;;;;;;;;;;28.05;54.41;100545.75;1637995;86;20206;-61
2022/05/31 15:58:41;;;;;;;;;;;;;;;27.84;54.52;100538.72;1638148;86;20561;-60
2022/05/31 16:01:46;;;;;;;;;;;;;;;27.71;54.60;100532.30;1644988;86;20221;-60
2022/05/31 16:04:52;;;;;;;;;;;;;;;27.59;54.56;100534.55;1643583;85;20218;-62
2022/05/31 16:07:57;;;;;;;;;;;;;;;27.42;54.62;100536.84;1622469;86;20566;-61
2022/05/31 16:11:05;;;;;;;;;;;;;;;27.31;54.65;100529.53;1640732;85;20269;-60
2022/05/31 16:14:13;;;;;;;;;;;;;;;27.16;54.68;100541.31;1639518;85;20221;-60
2022/05/31 16:17:16;;;;;;;;;;;;;;;27.05;54.72;100548.87;1648154;82;20603;-60
2022/05/31 16:20:22;;;;;;;;;;;;;;;26.98;54.78;100552.55;1670688;85;20246;-60
2022/05/31 16:23:34;;;;;;;;;;;;;;;26.90;54.75;100550.28;1662892;85;20560;-59
2022/05/31 16:26:36;;;;;;;;;;;;;;;26.76;54.73;100547.73;1667820;85;20610;-59
2022/05/31 16:29:43;;;;;;;;;;;;;;;26.68;54.82;100555.30;1639628;85;20244;-60
2022/05/31 16:32:48;;;;;;;;;;;;;;;26.62;54.81;100559.19;1668876;84;20222;-60
2022/05/31 16:35:53;;;;;;;;;;;;;;;26.52;54.86;100556.89;1662819;85;20575;-60
2022/05/31 16:42:23;;;;;;;;;;;;;;;26.32;54.99;100559.08;1671568;86;20235;-59
2022/05/31 16:45:28;;;;;;;;;;;;;;;26.19;55.04;100560.44;1675566;84;20262;-60
2022/05/31 16:48:36;;;;;;;;;;;;;;;26.08;55.06;100560.65;1667428;85;20460;-61
2022/05/31 16:51:51;;;;;;;;;;;;;;;25.98;55.17;100564.22;1671101;85;20223;-59
2022/05/31 16:54:57;;;;;;;;;;;;;;;25.89;55.25;100563.59;1656269;85;20244;-60
2022/05/31 16:58:01;;;;;;;;;;;;;;;25.79;55.30;100564.92;1637504;86;20218;-61
2022/05/31 17:01:10;;;;;;;;;;;;;;;25.72;55.37;100568.55;1668965;85;20267;-60
2022/05/31 17:04:31;;;;;;;;;;;;;;;25.68;55.41;100565.98;1667863;83;20211;-61
2022/05/31 17:14:27;;;;;;;;;;;;;;;25.43;55.60;100569.45;1670746;83;20209;-61
2022/05/31 17:17:34;;;;;;;;;;;;;;;25.34;55.70;100566.02;1673987;84;20218;-61
2022/05/31 17:20:45;;;;;;;;;;;;;;;25.25;55.77;100562.81;1683370;85;20245;-62
2022/05/31 17:23:51;;;;;;;;;;;;;;;25.15;55.90;100571.70;1693230;83;20206;-62
2022/05/31 17:26:56;;;;;;;;;;;;;;;25.02;56.00;100572.41;1681272;84;20226;-62
2022/05/31 17:30:04;;;;;;;;;;;;;;;24.93;56.12;100576.81;1660063;84;20294;-59